Time;durP1;ratioP1;P1;durP2;ratioP2;P2;SDS_P1;SDS_P2;PMS_P1;PMS_P2;Temp;Humidity;BMP_temperature;BMP_pressure;BME280_temperature;BME280_humidity;BME280_pressure;Samples;Min_cycle;Max_cycle;Signal;HPM_P1;HPM_P2
2021/04/14 00:00:36;;;;;;;;;;;;;;;8.83;79.65;93084.50;5092522;28;19908;-45
2021/04/14 00:03:03;;;;;;;;;;;;;;;8.81;79.83;93082.31;5092617;28;19908;-45
2021/04/14 00:05:32;;;;;;;;;;;;;;;8.90;79.18;93084.53;5092689;28;19908;-48
2021/04/14 00:07:57;;;;;;;;;;;;;;;8.90;79.44;93073.50;5092573;28;19919;-48
2021/04/14 00:10:27;;;;;;;;;;;;;;;8.74;79.51;93077.50;5092482;28;19908;-47
2021/04/14 00:12:52;;;;;;;;;;;;;;;8.77;79.37;93081.91;5092512;28;19919;-46
2021/04/14 00:15:19;;;;;;;;;;;;;;;8.78;80.01;93083.41;5092557;28;19916;-47
2021/04/14 00:17:44;;;;;;;;;;;;;;;8.72;79.57;93079.34;5092710;28;20315;-47
2021/04/14 00:20:10;;;;;;;;;;;;;;;8.75;79.31;93081.00;5092337;28;19912;-45
2021/04/14 00:22:36;;;;;;;;;;;;;;;8.35;80.17;93073.16;5092638;28;20002;-46
2021/04/14 00:25:01;;;;;;;;;;;;;;;8.18;80.62;93050.13;5092184;28;20447;-46
2021/04/14 00:27:26;;;;;;;;;;;;;;;8.35;80.79;93078.66;5091886;28;19912;-45
2021/04/14 00:29:51;;;;;;;;;;;;;;;8.08;80.88;93068.38;5091376;28;19912;-48
2021/04/14 00:32:17;;;;;;;;;;;;;;;8.10;81.09;93066.56;5092100;28;19907;-47
2021/04/14 00:34:42;;;;;;;;;;;;;;;8.02;81.70;93073.31;5091996;28;19916;-45
2021/04/14 00:37:07;;;;;;;;;;;;;;;8.18;80.80;93064.59;5091870;28;19957;-45
2021/04/14 00:39:32;;;;;;;;;;;;;;;8.17;80.80;93065.13;5091504;28;19915;-45
2021/04/14 00:41:59;;;;;;;;;;;;;;;8.08;80.82;93068.38;5091811;28;19931;-45
2021/04/14 00:44:24;;;;;;;;;;;;;;;8.17;80.29;93065.13;5091684;28;19959;-47
2021/04/14 00:46:49;;;;;;;;;;;;;;;8.23;79.82;93068.47;5090909;28;19954;-47
2021/04/14 00:49:15;;;;;;;;;;;;;;;8.20;80.16;93066.81;5091130;28;19962;-46
2021/04/14 00:51:41;;;;;;;;;;;;;;;8.08;80.19;93062.88;5090958;28;19908;-45
2021/04/14 00:54:06;;;;;;;;;;;;;;;8.15;80.12;93053.94;5090807;28;19966;-46
2021/04/14 00:56:31;;;;;;;;;;;;;;;8.07;80.07;93056.66;5091115;28;19912;-46
2021/04/14 00:58:56;;;;;;;;;;;;;;;8.16;79.70;93056.16;5089604;28;19919;-47
2021/04/14 01:01:22;;;;;;;;;;;;;;;8.17;79.21;93057.63;5090933;28;19951;-45
2021/04/14 01:03:47;;;;;;;;;;;;;;;8.16;79.22;93061.66;5091881;28;19907;-44
2021/04/14 01:06:14;;;;;;;;;;;;;;;8.02;80.15;93063.03;5091328;28;20041;-44
2021/04/14 01:08:39;;;;;;;;;;;;;;;8.07;80.12;93055.91;5091408;28;19914;-44
2021/04/14 01:11:05;;;;;;;;;;;;;;;8.19;79.41;93062.56;5091446;28;19912;-46
2021/04/14 01:13:31;;;;;;;;;;;;;;;7.81;80.52;93058.88;5091633;28;20312;-44
2021/04/14 01:15:56;;;;;;;;;;;;;;;7.62;81.45;93046.13;5091301;28;19938;-47
2021/04/14 01:18:24;;;;;;;;;;;;;;;7.40;82.28;93041.22;5091321;28;19919;-44
2021/04/14 01:20:49;;;;;;;;;;;;;;;7.27;82.97;93049.53;5086745;28;19908;-46
2021/04/14 01:23:16;;;;;;;;;;;;;;;7.32;83.36;93053.41;5091480;28;20319;-45
2021/04/14 01:25:41;;;;;;;;;;;;;;;7.46;82.73;93057.53;5091529;28;19957;-45
2021/04/14 01:28:08;;;;;;;;;;;;;;;7.64;82.16;93048.34;5091222;28;19916;-44
2021/04/14 01:30:34;;;;;;;;;;;;;;;7.79;82.18;93059.44;5091238;28;20293;-46
2021/04/14 01:32:59;;;;;;;;;;;;;;;7.81;82.59;93067.13;5091086;28;19914;-45
2021/04/14 01:35:25;;;;;;;;;;;;;;;7.78;83.26;93065.44;5091197;28;19916;-45
2021/04/14 01:37:51;;;;;;;;;;;;;;;7.88;83.05;93069.19;5073726;28;19957;-45
2021/04/14 01:40:17;;;;;;;;;;;;;;;7.86;82.25;93061.47;5070924;28;19916;-46
2021/04/14 01:42:42;;;;;;;;;;;;;;;7.97;82.16;93074.19;5079623;28;19912;-46
2021/04/14 01:45:08;;;;;;;;;;;;;;;8.05;82.04;93069.47;5070376;28;19924;-45
2021/04/14 01:47:34;;;;;;;;;;;;;;;8.10;82.43;93071.34;5071080;28;20332;-50
2021/04/14 01:49:59;;;;;;;;;;;;;;;8.21;82.44;93076.50;5071153;28;19908;-47
2021/04/14 01:52:24;;;;;;;;;;;;;;;8.26;82.19;93092.16;5075179;28;20004;-48
2021/04/14 01:54:50;;;;;;;;;;;;;;;8.32;81.70;93098.97;5075097;28;20296;-46
2021/04/14 01:57:15;;;;;;;;;;;;;;;8.20;82.19;93099.81;5074976;28;19915;-47
2021/04/14 01:59:40;;;;;;;;;;;;;;;8.18;81.54;93111.34;5077258;28;20404;-46
2021/04/14 02:02:05;;;;;;;;;;;;;;;8.08;81.57;93115.84;5086028;28;20331;-45
2021/04/14 02:04:31;;;;;;;;;;;;;;;8.17;81.25;93115.38;5075059;28;19908;-45
2021/04/14 02:06:56;;;;;;;;;;;;;;;8.11;81.09;93112.03;5074876;28;19938;-48
2021/04/14 02:09:21;;;;;;;;;;;;;;;8.08;80.92;93118.59;5073560;28;19962;-48
2021/04/14 02:11:47;;;;;;;;;;;;;;;8.01;80.59;93127.53;5075582;28;20011;-47
2021/04/14 02:14:12;;;;;;;;;;;;;;;8.02;80.68;93123.53;5074751;28;19916;-47
2021/04/14 02:16:38;;;;;;;;;;;;;;;7.98;80.49;93125.88;5074767;28;19931;-46
2021/04/14 02:19:04;;;;;;;;;;;;;;;7.94;80.87;93135.75;5074337;28;20435;-47
2021/04/14 02:21:29;;;;;;;;;;;;;;;7.87;80.17;93139.16;5075323;28;19916;-47
2021/04/14 02:23:55;;;;;;;;;;;;;;;7.82;80.22;93146.28;5074363;28;19913;-47
2021/04/14 02:26:20;;;;;;;;;;;;;;;7.84;80.07;93145.75;5074595;28;20361;-47
2021/04/14 02:28:46;;;;;;;;;;;;;;;7.76;80.34;93147.69;5074287;28;20434;-47
2021/04/14 02:31:13;;;;;;;;;;;;;;;7.76;80.11;93151.19;5074389;28;19965;-46
2021/04/14 02:33:38;;;;;;;;;;;;;;;7.62;80.74;93147.75;5074050;28;19908;-46
2021/04/14 02:36:04;;;;;;;;;;;;;;;7.69;81.02;93146.34;5074183;28;19913;-46
2021/04/14 02:38:29;;;;;;;;;;;;;;;7.81;80.46;93133.09;5075721;28;20444;-45
2021/04/14 02:40:54;;;;;;;;;;;;;;;7.79;79.02;93132.88;5075189;28;19963;-45
2021/04/14 02:43:20;;;;;;;;;;;;;;;7.75;78.83;93118.75;5089459;28;20022;-45
2021/04/14 02:45:46;;;;;;;;;;;;;;;7.67;78.22;93104.94;5086560;28;19970;-44
2021/04/14 02:48:11;;;;;;;;;;;;;;;7.72;77.67;93101.31;5074186;28;19976;-46
2021/04/14 02:50:37;;;;;;;;;;;;;;;7.49;77.48;93090.16;5074085;28;20407;-45
2021/04/14 02:53:02;;;;;;;;;;;;;;;7.33;78.66;93077.59;5090020;28;19978;-45
2021/04/14 02:55:28;;;;;;;;;;;;;;;7.17;78.74;93073.22;5094137;28;19942;-46
2021/04/14 02:57:53;;;;;;;;;;;;;;;7.11;79.28;93055.41;5094284;28;20382;-45
2021/04/14 03:00:20;;;;;;;;;;;;;;;6.99;79.51;93043.97;5093869;28;19908;-46
2021/04/14 03:02:45;;;;;;;;;;;;;;;7.08;79.79;93037.28;5093373;28;19912;-45
2021/04/14 03:05:11;;;;;;;;;;;;;;;7.22;79.73;93042.16;5093819;28;19908;-44
2021/04/14 03:07:36;;;;;;;;;;;;;;;7.33;79.37;93043.88;5093651;28;19916;-45
2021/04/14 03:10:02;;;;;;;;;;;;;;;7.39;78.73;93042.47;5093901;28;19978;-45
2021/04/14 03:12:28;;;;;;;;;;;;;;;7.41;79.16;93041.94;5093988;28;19908;-45
2021/04/14 03:14:55;;;;;;;;;;;;;;;7.40;79.49;93051.47;5093657;28;19922;-44
2021/04/14 03:17:20;;;;;;;;;;;;;;;7.16;80.36;93051.81;5092628;28;19908;-45
2021/04/14 03:19:45;;;;;;;;;;;;;;;7.15;80.25;93059.28;5093825;28;20368;-44
2021/04/14 03:22:11;;;;;;;;;;;;;;;7.03;80.57;93054.63;5087301;28;20423;-45
2021/04/14 03:24:36;;;;;;;;;;;;;;;7.02;80.65;93055.91;5073603;28;19950;-43
2021/04/14 03:27:02;;;;;;;;;;;;;;;7.00;80.83;93064.66;5072940;28;19948;-46
2021/04/14 03:29:27;;;;;;;;;;;;;;;7.00;80.40;93072.13;5073369;28;19923;-41
2021/04/14 03:31:52;;;;;;;;;;;;;;;6.97;80.53;93076.72;5073176;28;20309;-45
2021/04/14 03:34:17;;;;;;;;;;;;;;;6.96;80.40;93079.97;5073200;28;19920;-46
2021/04/14 03:36:43;;;;;;;;;;;;;;;7.10;79.99;93078.66;5073017;28;20404;-44
2021/04/14 03:39:08;;;;;;;;;;;;;;;7.21;79.19;93073.63;5073122;28;19915;-46
2021/04/14 03:41:33;;;;;;;;;;;;;;;7.24;78.49;93078.06;5073902;28;19958;-44
2021/04/14 03:43:59;;;;;;;;;;;;;;;7.29;78.50;93071.69;5091637;28;20419;-44
2021/04/14 03:46:25;;;;;;;;;;;;;;;7.32;78.61;93078.84;5090187;28;20606;-45
2021/04/14 03:48:50;;;;;;;;;;;;;;;7.25;79.00;93070.56;5092202;28;20310;-46
2021/04/14 03:51:16;;;;;;;;;;;;;;;6.96;80.17;93058.75;5093088;28;19912;-45
2021/04/14 03:53:42;;;;;;;;;;;;;;;6.76;80.40;93065.69;5092944;28;20372;-44
2021/04/14 03:56:12;;;;;;;;;;;;;;;6.47;81.27;93068.84;5093179;28;20381;-45
2021/04/14 03:58:38;;;;;;;;;;;;;;;6.50;81.12;93070.53;5092892;28;19912;-47
2021/04/14 04:01:05;;;;;;;;;;;;;;;6.56;80.59;93069.13;5093165;28;19908;-44
2021/04/14 04:03:31;;;;;;;;;;;;;;;6.62;80.18;93072.50;5093017;28;20368;-45
2021/04/14 04:05:57;;;;;;;;;;;;;;;6.61;79.98;93068.28;5093102;28;20023;-44
2021/04/14 04:08:22;;;;;;;;;;;;;;;6.72;79.86;93078.28;5092894;28;20297;-45
2021/04/14 04:10:48;;;;;;;;;;;;;;;6.78;79.29;93070.66;5092403;28;19923;-45
2021/04/14 04:13:14;;;;;;;;;;;;;;;6.74;79.21;93070.25;5092585;28;19912;-46
2021/04/14 04:15:39;;;;;;;;;;;;;;;6.57;79.37;93070.63;5091613;28;20486;-45
2021/04/14 04:18:05;;;;;;;;;;;;;;;6.62;80.09;93077.25;5092470;28;20022;-46
2021/04/14 04:20:30;;;;;;;;;;;;;;;6.84;79.05;93090.47;5092766;28;19997;-45
2021/04/14 04:22:55;;;;;;;;;;;;;;;6.69;79.51;93087.56;5092696;28;19908;-45
2021/04/14 04:25:21;;;;;;;;;;;;;;;6.75;79.90;93082.69;5092525;28;19915;-46
2021/04/14 04:27:46;;;;;;;;;;;;;;;6.62;80.31;93080.00;5092265;28;19994;-44
2021/04/14 04:30:11;;;;;;;;;;;;;;;6.85;80.38;93078.22;5092500;28;19919;-44
2021/04/14 04:32:37;;;;;;;;;;;;;;;7.02;79.74;93084.06;5090973;28;20362;-45
2021/04/14 04:35:03;;;;;;;;;;;;;;;7.18;79.88;93088.44;5092369;28;19955;-45
2021/04/14 04:37:29;;;;;;;;;;;;;;;7.31;79.61;93098.59;5092060;28;19915;-46
2021/04/14 04:39:54;;;;;;;;;;;;;;;7.17;79.68;93094.47;5092374;28;19912;-44
2021/04/14 04:42:19;;;;;;;;;;;;;;;7.15;80.17;93097.72;5092293;28;19915;-44
2021/04/14 04:44:45;;;;;;;;;;;;;;;7.32;79.99;93089.81;5091889;28;19919;-47
2021/04/14 04:47:10;;;;;;;;;;;;;;;7.44;79.36;93084.81;5092240;28;19908;-45
2021/04/14 04:49:36;;;;;;;;;;;;;;;7.58;79.65;93094.44;5091811;28;20308;-45
2021/04/14 04:52:01;;;;;;;;;;;;;;;7.74;79.23;93092.53;5091763;28;19912;-47
2021/04/14 04:54:26;;;;;;;;;;;;;;;7.78;77.64;93085.44;5091732;28;19923;-47
2021/04/14 04:56:51;;;;;;;;;;;;;;;7.85;77.53;93092.25;5091479;28;19919;-44
2021/04/14 04:59:17;;;;;;;;;;;;;;;7.83;78.63;93086.56;5091677;28;19911;-45
2021/04/14 05:01:42;;;;;;;;;;;;;;;8.10;78.77;93085.09;5091975;28;19915;-45
2021/04/14 05:04:09;;;;;;;;;;;;;;;8.31;78.01;93085.78;5090479;28;19908;-45
2021/04/14 05:06:34;;;;;;;;;;;;;;;8.47;76.65;93084.56;5091859;28;19959;-48
2021/04/14 05:08:59;;;;;;;;;;;;;;;8.62;75.93;93078.41;5091580;28;19943;-48
2021/04/14 05:11:24;;;;;;;;;;;;;;;8.79;75.74;93079.34;5091731;28;19912;-45
2021/04/14 05:13:50;;;;;;;;;;;;;;;8.87;76.17;93076.63;5091477;28;19947;-45
2021/04/14 05:16:15;;;;;;;;;;;;;;;9.04;75.62;93080.34;5091760;28;19908;-45
2021/04/14 05:18:40;;;;;;;;;;;;;;;9.27;74.62;93076.91;5091426;28;20011;-46
2021/04/14 05:21:06;;;;;;;;;;;;;;;9.51;74.03;93082.59;5091620;28;19908;-48
2021/04/14 05:23:31;;;;;;;;;;;;;;;9.67;72.57;93080.59;5090115;28;19908;-47
2021/04/14 05:25:56;;;;;;;;;;;;;;;9.90;71.67;93079.28;5088323;28;19911;-47
2021/04/14 05:28:24;;;;;;;;;;;;;;;10.15;71.57;93073.94;5089123;28;19951;-46
2021/04/14 05:30:49;;;;;;;;;;;;;;;10.33;70.41;93072.78;5089187;28;19916;-48
2021/04/14 05:33:14;;;;;;;;;;;;;;;10.54;69.70;93075.31;5088732;28;19950;-46
2021/04/14 05:35:40;;;;;;;;;;;;;;;10.63;68.60;93067.16;5088955;28;19922;-45
2021/04/14 05:38:05;;;;;;;;;;;;;;;10.76;67.39;93071.00;5089010;28;20663;-45
2021/04/14 05:40:31;;;;;;;;;;;;;;;10.94;67.62;93075.31;5089025;28;19912;-45
2021/04/14 05:42:56;;;;;;;;;;;;;;;11.12;67.70;93079.63;5089213;28;19915;-45
2021/04/14 05:45:28;;;;;;;;;;;;;;;11.33;67.22;93083.56;5088879;28;19919;-45
2021/04/14 05:47:55;;;;;;;;;;;;;;;11.38;66.53;93076.34;5088764;28;20144;-45
2021/04/14 05:50:22;;;;;;;;;;;;;;;11.54;65.93;93083.25;5089121;28;19994;-46
2021/04/14 05:52:47;;;;;;;;;;;;;;;11.68;64.50;93078.19;5088664;28;19919;-46
2021/04/14 05:55:13;;;;;;;;;;;;;;;11.80;64.85;93071.63;5088910;28;19915;-45
2021/04/14 05:57:38;;;;;;;;;;;;;;;11.92;64.05;93077.44;5088618;28;20350;-45
2021/04/14 06:00:05;;;;;;;;;;;;;;;11.97;64.18;93074.47;5087441;28;19912;-45
2021/04/14 06:02:30;;;;;;;;;;;;;;;12.27;63.64;93078.97;5088675;28;19916;-44
2021/04/14 06:04:55;;;;;;;;;;;;;;;12.07;62.20;93082.84;5088980;28;19912;-46
2021/04/14 06:07:21;;;;;;;;;;;;;;;11.88;62.09;93083.38;5088420;28;20388;-45
2021/04/14 06:09:47;;;;;;;;;;;;;;;11.51;63.26;93084.38;5089244;28;19923;-46
2021/04/14 06:12:12;;;;;;;;;;;;;;;10.96;65.15;93098.31;5089273;28;20002;-45
2021/04/14 06:14:37;;;;;;;;;;;;;;;10.68;66.66;93097.91;5088597;28;19920;-44
2021/04/14 06:17:03;;;;;;;;;;;;;;;10.62;66.68;93096.06;5088440;28;19919;-48
2021/04/14 06:19:28;;;;;;;;;;;;;;;10.55;66.98;93098.84;5088520;28;19934;-44
2021/04/14 06:21:53;;;;;;;;;;;;;;;10.38;67.37;93104.97;5071379;28;19999;-44
2021/04/14 06:24:18;;;;;;;;;;;;;;;10.52;67.62;93106.25;5068203;28;19912;-46
2021/04/14 06:26:50;;;;;;;;;;;;;;;10.39;67.64;93109.22;5068705;28;19963;-46
2021/04/14 06:29:15;;;;;;;;;;;;;;;10.29;67.90;93108.31;5068048;28;20011;-44
2021/04/14 06:31:41;;;;;;;;;;;;;;;9.76;69.94;93107.59;5066687;28;20007;-44
2021/04/14 06:34:25;;;;;;;;;;;;;;;9.77;70.61;93111.81;5072704;28;20384;-45
2021/04/14 06:36:54;;;;;;;;;;;;;;;9.89;69.34;93119.19;5088034;28;20380;-44
2021/04/14 06:39:20;;;;;;;;;;;;;;;10.09;69.29;93125.78;5091322;28;19954;-44
2021/04/14 06:41:56;;;;;;;;;;;;;;;9.88;70.76;93125.25;5092469;28;19915;-44
2021/04/14 06:44:35;;;;;;;;;;;;;;;9.45;70.82;93128.16;5092225;28;19916;-44
2021/04/14 06:47:00;;;;;;;;;;;;;;;9.65;70.74;93136.28;5092277;28;20010;-45
2021/04/14 06:49:32;;;;;;;;;;;;;;;9.33;71.32;93138.06;5090475;28;20475;-45
2021/04/14 06:52:13;;;;;;;;;;;;;;;9.50;71.48;93138.28;5091978;28;19912;-46
2021/04/14 06:54:47;;;;;;;;;;;;;;;9.48;70.66;93147.09;5090030;28;20401;-44
2021/04/14 06:57:16;;;;;;;;;;;;;;;9.54;70.73;93155.19;5083023;28;20018;-45
2021/04/14 06:59:43;;;;;;;;;;;;;;;9.54;69.41;93146.91;5070384;28;19916;-45
2021/04/14 07:02:09;;;;;;;;;;;;;;;9.30;70.31;93150.16;5076760;28;20376;-43
2021/04/14 07:04:43;;;;;;;;;;;;;;;9.56;69.50;93160.88;5076694;28;20348;-49
2021/04/14 07:07:09;;;;;;;;;;;;;;;9.71;68.21;93166.41;5086066;28;20385;-45
2021/04/14 07:09:36;;;;;;;;;;;;;;;9.84;67.89;93155.19;5087150;28;19920;-46
2021/04/14 07:12:02;;;;;;;;;;;;;;;9.89;65.62;93157.78;5075604;28;20029;-44
2021/04/14 07:14:28;;;;;;;;;;;;;;;10.04;66.31;93162.56;5069726;28;19917;-44
2021/04/14 07:16:59;;;;;;;;;;;;;;;10.20;66.77;93157.81;5071124;28;19912;-45
2021/04/14 07:19:33;;;;;;;;;;;;;;;10.75;65.11;93152.34;5070962;28;19958;-45
2021/04/14 07:22:07;;;;;;;;;;;;;;;10.40;65.57;93159.59;5071126;28;19912;-45
2021/04/14 07:24:36;;;;;;;;;;;;;;;10.64;65.21;93157.00;5071238;28;19916;-46
2021/04/14 07:27:07;;;;;;;;;;;;;;;10.96;63.89;93163.91;5070015;28;19931;-45
2021/04/14 07:29:36;;;;;;;;;;;;;;;11.29;62.67;93157.84;5071001;28;19913;-45
2021/04/14 07:32:08;;;;;;;;;;;;;;;11.50;59.89;93163.06;5070996;28;19987;-45
2021/04/14 07:34:42;;;;;;;;;;;;;;;11.39;60.79;93150.41;5071171;28;19916;-43
2021/04/14 07:37:07;;;;;;;;;;;;;;;10.78;62.34;93159.53;5071268;28;19917;-45
2021/04/14 07:39:39;;;;;;;;;;;;;;;10.73;62.81;93160.44;5069904;28;20359;-45
2021/04/14 07:42:04;;;;;;;;;;;;;;;10.93;63.05;93160.22;5069781;28;19908;-46
2021/04/14 07:44:32;;;;;;;;;;;;;;;11.05;61.64;93158.50;5075342;28;19974;-45
2021/04/14 07:46:58;;;;;;;;;;;;;;;11.06;62.05;93156.47;5089647;28;19923;-45
2021/04/14 07:49:24;;;;;;;;;;;;;;;11.27;62.16;93156.94;5081971;28;20303;-43
2021/04/14 07:51:50;;;;;;;;;;;;;;;10.84;61.65;93160.06;5069153;28;20677;-47
2021/04/14 07:54:17;;;;;;;;;;;;;;;10.78;61.09;93168.56;5072949;28;19916;-44
2021/04/14 07:56:45;;;;;;;;;;;;;;;10.57;63.37;93166.00;5071166;28;19941;-41
2021/04/14 07:59:12;;;;;;;;;;;;;;;10.75;61.99;93160.63;5083157;28;19927;-42
2021/04/14 08:01:37;;;;;;;;;;;;;;;10.61;62.68;93160.84;5089431;28;19919;-48
2021/04/14 08:04:09;;;;;;;;;;;;;;;12.01;58.49;93155.03;5090631;28;20306;-46
2021/04/14 08:06:34;;;;;;;;;;;;;;;12.57;57.54;93152.69;5090564;28;19919;-49
2021/04/14 08:09:07;;;;;;;;;;;;;;;12.77;54.45;93162.63;5090138;28;19908;-46
2021/04/14 08:11:33;;;;;;;;;;;;;;;13.02;54.42;93165.31;5089907;28;19911;-44
2021/04/14 08:14:19;;;;;;;;;;;;;;;13.87;53.12;93165.16;5088908;28;20205;-45
2021/04/14 08:16:48;;;;;;;;;;;;;;;13.63;52.00;93164.03;5088771;28;19926;-47
2021/04/14 08:19:29;;;;;;;;;;;;;;;14.65;51.00;93164.13;5088587;28;19912;-47
2021/04/14 08:21:58;;;;;;;;;;;;;;;15.66;46.27;93152.72;5076910;28;19908;-44
2021/04/14 08:24:47;;;;;;;;;;;;;;;16.85;45.63;93160.91;5071114;28;19912;-47
2021/04/14 08:27:12;;;;;;;;;;;;;;;18.17;40.73;93163.81;5061337;28;19961;-44
2021/04/14 08:29:37;;;;;;;;;;;;;;;18.29;38.15;93157.53;5088100;28;19916;-43
2021/04/14 08:32:07;;;;;;;;;;;;;;;18.74;39.57;93170.81;5089712;28;19962;-57
2021/04/14 08:34:33;;;;;;;;;;;;;;;19.89;37.52;93183.03;5088358;28;19916;-58
2021/04/14 08:37:04;;;;;;;;;;;;;;;20.49;34.13;93180.00;5088529;28;19914;-56
2021/04/14 08:39:31;;;;;;;;;;;;;;;21.10;33.40;93181.84;5089463;28;19919;-45
2021/04/14 08:42:12;;;;;;;;;;;;;;;21.41;31.68;93183.38;5088778;28;19911;-49
2021/04/14 08:44:38;;;;;;;;;;;;;;;21.13;32.09;93183.41;5089628;28;20392;-47
2021/04/14 08:47:10;;;;;;;;;;;;;;;20.44;33.87;93191.63;5089601;28;19951;-46
2021/04/14 08:49:35;;;;;;;;;;;;;;;19.57;34.61;93175.63;5089226;28;20690;-49
2021/04/14 08:52:01;;;;;;;;;;;;;;;19.71;34.79;93175.69;5088034;28;19908;-50
2021/04/14 08:54:27;;;;;;;;;;;;;;;18.57;35.17;93176.78;5089090;28;19915;-45
2021/04/14 08:56:53;;;;;;;;;;;;;;;18.44;36.86;93182.97;5089498;28;20316;-49
2021/04/14 08:59:19;;;;;;;;;;;;;;;17.48;38.59;93174.78;5088804;28;20376;-45
2021/04/14 09:01:44;;;;;;;;;;;;;;;16.80;39.66;93176.63;5087851;28;19972;-46
2021/04/14 09:04:10;;;;;;;;;;;;;;;17.35;39.53;93176.06;5089550;28;19912;-43
2021/04/14 09:06:36;;;;;;;;;;;;;;;16.82;38.77;93187.19;5089106;28;20319;-43
2021/04/14 09:09:06;;;;;;;;;;;;;;;17.22;38.03;93178.66;5076894;28;20316;-46
2021/04/14 09:11:31;;;;;;;;;;;;;;;16.92;38.66;93179.47;5076122;28;20003;-45
2021/04/14 09:14:04;;;;;;;;;;;;;;;17.44;38.29;93171.75;5089261;28;20414;-42
2021/04/14 09:16:36;;;;;;;;;;;;;;;18.92;35.08;93168.34;5080472;28;19912;-41
2021/04/14 09:19:10;;;;;;;;;;;;;;;20.76;32.51;93166.03;5068567;28;19962;-45
2021/04/14 09:21:45;;;;;;;;;;;;;;;21.11;31.26;93172.06;5067331;28;20405;-45
2021/04/14 09:24:21;;;;;;;;;;;;;;;22.02;29.40;93165.31;5068900;28;19989;-46
2021/04/14 09:26:52;;;;;;;;;;;;;;;22.86;29.25;93162.84;5067704;28;19940;-45
2021/04/14 09:29:24;;;;;;;;;;;;;;;23.82;27.94;93159.88;5068569;28;19912;-46
2021/04/14 09:31:51;;;;;;;;;;;;;;;24.73;26.58;93161.34;5068642;28;19932;-47
2021/04/14 09:34:18;;;;;;;;;;;;;;;25.40;25.76;93158.81;5067123;28;19916;-47
2021/04/14 09:36:47;;;;;;;;;;;;;;;24.81;25.48;93153.91;5068953;28;19940;-48
2021/04/14 09:39:33;;;;;;;;;;;;;;;24.63;26.31;93147.56;5067664;28;19966;-50
2021/04/14 09:41:59;;;;;;;;;;;;;;;24.76;28.39;93151.59;5070941;28;19919;-49
2021/04/14 09:44:33;;;;;;;;;;;;;;;24.77;26.63;93150.22;5088532;28;19924;-49
2021/04/14 09:47:16;;;;;;;;;;;;;;;24.64;25.00;93145.47;5088505;28;19919;-44
2021/04/14 09:49:42;;;;;;;;;;;;;;;25.18;25.41;93147.47;5074449;28;19913;-43
2021/04/14 09:52:18;;;;;;;;;;;;;;;24.69;24.28;93149.88;5069868;28;19998;-45
2021/04/14 09:54:43;;;;;;;;;;;;;;;24.24;25.71;93146.75;5080617;28;20307;-44
2021/04/14 09:57:11;;;;;;;;;;;;;;;24.53;25.02;93146.47;5087517;28;19998;-47
2021/04/14 09:59:38;;;;;;;;;;;;;;;24.72;26.14;93143.66;5087223;28;19934;-44
2021/04/14 10:02:04;;;;;;;;;;;;;;;25.25;24.70;93146.28;5087613;28;20372;-45
2021/04/14 10:04:29;;;;;;;;;;;;;;;24.58;26.15;93136.78;5087522;28;19912;-44
2021/04/14 10:06:55;;;;;;;;;;;;;;;24.60;25.99;93137.56;5087618;28;19916;-47
2021/04/14 10:09:20;;;;;;;;;;;;;;;24.40;25.88;93134.00;5076462;28;19996;-47
2021/04/14 10:11:46;;;;;;;;;;;;;;;23.98;27.59;93132.31;5069837;28;19915;-44
2021/04/14 10:14:14;;;;;;;;;;;;;;;24.96;25.76;93143.13;5072503;28;19943;-44
2021/04/14 10:16:39;;;;;;;;;;;;;;;25.02;24.97;93143.34;5072558;28;19912;-45
2021/04/14 10:19:06;;;;;;;;;;;;;;;24.59;24.46;93138.22;5072157;28;20026;-46
2021/04/14 10:21:33;;;;;;;;;;;;;;;24.98;23.53;93138.28;5072471;28;19939;-44
2021/04/14 10:24:03;;;;;;;;;;;;;;;24.26;26.05;93141.19;5070902;28;19960;-44
2021/04/14 10:26:30;;;;;;;;;;;;;;;24.44;26.31;93133.41;5073276;28;19912;-44
2021/04/14 10:28:55;;;;;;;;;;;;;;;25.20;25.28;93144.72;5092043;28;19954;-47
2021/04/14 10:31:22;;;;;;;;;;;;;;;25.39;23.89;93137.56;5083416;28;19947;-45
2021/04/14 10:33:48;;;;;;;;;;;;;;;25.41;23.88;93129.91;5092428;28;20410;-45
2021/04/14 10:36:14;;;;;;;;;;;;;;;25.28;24.40;93128.03;5092040;28;19912;-46
2021/04/14 10:38:39;;;;;;;;;;;;;;;24.83;23.37;93134.22;5073644;28;20393;-45
2021/04/14 10:41:17;;;;;;;;;;;;;;;23.90;25.53;93121.47;5082331;28;20007;-44
2021/04/14 10:43:42;;;;;;;;;;;;;;;23.86;26.87;93124.13;5088928;28;19922;-44
2021/04/14 10:46:11;;;;;;;;;;;;;;;23.77;25.90;93130.81;5090114;28;19919;-44
2021/04/14 10:48:37;;;;;;;;;;;;;;;23.82;27.36;93118.31;5088414;28;20464;-47
2021/04/14 10:51:05;;;;;;;;;;;;;;;24.31;25.75;93126.59;5081119;28;20389;-45
2021/04/14 10:53:31;;;;;;;;;;;;;;;24.51;24.75;93127.38;5091291;28;19965;-44
2021/04/14 10:55:56;;;;;;;;;;;;;;;25.46;24.26;93131.53;5090786;28;19912;-46
2021/04/14 10:58:22;;;;;;;;;;;;;;;25.08;24.23;93132.28;5091240;28;19919;-44
2021/04/14 11:00:48;;;;;;;;;;;;;;;24.05;24.91;93128.41;5081354;28;19912;-48
2021/04/14 11:03:14;;;;;;;;;;;;;;;24.59;24.57;93129.75;5090381;28;20385;-46
2021/04/14 11:05:44;;;;;;;;;;;;;;;24.10;24.84;93127.91;5080174;28;19962;-50
2021/04/14 11:08:09;;;;;;;;;;;;;;;24.31;25.08;93111.75;5080609;28;19999;-46
2021/04/14 11:10:35;;;;;;;;;;;;;;;23.88;24.76;93118.56;5078032;28;20003;-51
2021/04/14 11:13:00;;;;;;;;;;;;;;;23.78;24.34;93114.63;5081052;28;19912;-45
2021/04/14 11:15:28;;;;;;;;;;;;;;;23.73;25.92;93108.09;5080565;28;19938;-46
2021/04/14 11:17:56;;;;;;;;;;;;;;;22.86;25.42;93100.91;5090498;28;20057;-48
2021/04/14 11:20:25;;;;;;;;;;;;;;;23.03;26.01;93108.69;5090183;28;19912;-45
2021/04/14 11:22:51;;;;;;;;;;;;;;;22.55;26.99;93117.81;5089865;28;19923;-44
2021/04/14 11:25:22;;;;;;;;;;;;;;;21.97;27.37;93107.44;5082304;28;19913;-48
2021/04/14 11:27:56;;;;;;;;;;;;;;;21.83;27.94;93112.38;5087250;28;19969;-46
2021/04/14 11:30:22;;;;;;;;;;;;;;;21.30;29.67;93111.19;5088611;28;19915;-47
2021/04/14 11:32:54;;;;;;;;;;;;;;;20.98;31.49;93124.34;5089609;28;20310;-44
2021/04/14 11:35:29;;;;;;;;;;;;;;;20.43;31.35;93112.38;5089194;28;19920;-46
2021/04/14 11:37:54;;;;;;;;;;;;;;;19.74;32.15;93121.22;5087068;28;19962;-41
2021/04/14 11:40:19;;;;;;;;;;;;;;;19.68;32.48;93118.84;5078388;28;19916;-43
2021/04/14 11:42:52;;;;;;;;;;;;;;;19.32;32.74;93111.16;5088723;28;19912;-47
2021/04/14 11:45:25;;;;;;;;;;;;;;;19.03;32.53;93111.66;5091633;28;20015;-45
2021/04/14 11:47:50;;;;;;;;;;;;;;;19.19;31.36;93109.75;5089198;28;19908;-45
2021/04/14 11:50:16;;;;;;;;;;;;;;;18.76;34.58;93100.25;5081823;28;20373;-46
2021/04/14 11:52:55;;;;;;;;;;;;;;;18.86;33.09;93126.75;5090967;28;19915;-44
2021/04/14 11:55:20;;;;;;;;;;;;;;;18.44;34.64;93124.25;5090780;28;20377;-44
2021/04/14 11:57:46;;;;;;;;;;;;;;;18.05;34.45;93121.19;5090416;28;19915;-43
2021/04/14 12:00:20;;;;;;;;;;;;;;;17.72;34.89;93130.94;5087399;28;20443;-44
2021/04/14 12:02:46;;;;;;;;;;;;;;;17.47;35.16;93128.69;5080034;28;19911;-42
2021/04/14 12:05:12;;;;;;;;;;;;;;;17.05;35.90;93129.47;5089325;28;20007;-45
2021/04/14 12:07:37;;;;;;;;;;;;;;;16.71;35.42;93132.06;5089602;28;20007;-44
2021/04/14 12:10:03;;;;;;;;;;;;;;;16.70;37.21;93122.97;5090629;28;19978;-44
2021/04/14 12:12:29;;;;;;;;;;;;;;;16.82;37.66;93117.47;5086289;28;19912;-43
2021/04/14 12:14:54;;;;;;;;;;;;;;;16.59;38.62;93121.56;5085715;28;19927;-44
2021/04/14 12:17:20;;;;;;;;;;;;;;;16.51;38.16;93123.81;5089303;28;19923;-45
2021/04/14 12:19:45;;;;;;;;;;;;;;;16.62;37.08;93117.59;5083603;28;19916;-43
2021/04/14 12:22:11;;;;;;;;;;;;;;;16.98;36.51;93118.53;5089214;28;19935;-44
2021/04/14 12:24:36;;;;;;;;;;;;;;;16.79;37.42;93116.59;5088726;28;20010;-43
2021/04/14 12:27:02;;;;;;;;;;;;;;;16.75;37.43;93116.34;5088610;28;19965;-45
2021/04/14 12:29:27;;;;;;;;;;;;;;;16.94;36.74;93118.25;5085916;28;19912;-44
2021/04/14 12:31:53;;;;;;;;;;;;;;;16.50;35.70;93116.06;5089110;28;19947;-44
2021/04/14 12:34:18;;;;;;;;;;;;;;;16.43;37.56;93117.69;5088456;28;20350;-45
2021/04/14 12:36:44;;;;;;;;;;;;;;;16.15;37.60;93120.63;5087586;28;20388;-44
2021/04/14 12:39:09;;;;;;;;;;;;;;;15.88;37.85;93109.72;5088877;28;19908;-44
2021/04/14 12:41:35;;;;;;;;;;;;;;;15.87;38.93;93102.72;5088839;28;19916;-45
2021/04/14 12:44:00;;;;;;;;;;;;;;;15.86;38.65;93109.59;5085952;28;20690;-45
2021/04/14 12:46:25;;;;;;;;;;;;;;;15.76;39.51;93106.13;5082463;28;19912;-45
2021/04/14 12:48:51;;;;;;;;;;;;;;;15.71;39.44;93101.59;5081909;28;20336;-43
2021/04/14 12:51:34;;;;;;;;;;;;;;;15.56;40.04;93097.09;5088297;28;19919;-43